sensor_id;sensor_type;location;lat;lon;timestamp;temperature;humidity
3942;DHT22;1985;48.592;8.850;2024-02-21T00:00:52;6.50;99.90
3942;DHT22;1985;48.592;8.850;2024-02-21T00:03:18;6.40;99.90
3942;DHT22;1985;48.592;8.850;2024-02-21T00:05:45;6.40;99.90
3942;DHT22;1985;48.592;8.850;2024-02-21T00:08:10;6.40;99.90
3942;DHT22;1985;48.592;8.850;2024-02-21T00:10:36;6.50;99.90
3942;DHT22;1985;48.592;8.850;2024-02-21T00:13:02;6.50;99.90
3942;DHT22;1985;48.592;8.850;2024-02-21T00:15:27;6.50;99.90
3942;DHT22;1985;48.592;8.850;2024-02-21T00:17:53;6.50;99.90
3942;DHT22;1985;48.592;8.850;2024-02-21T00:20:19;6.60;99.90
3942;DHT22;1985;48.592;8.850;2024-02-21T00:22:45;6.60;99.90
3942;DHT22;1985;48.592;8.850;2024-02-21T00:25:11;6.50;99.90
3942;DHT22;1985;48.592;8.850;2024-02-21T00:27:37;6.50;99.90
3942;DHT22;1985;48.592;8.850;2024-02-21T00:30:03;6.50;99.90
3942;DHT22;1985;48.592;8.850;2024-02-21T00:32:29;6.30;99.90
3942;DHT22;1985;48.592;8.850;2024-02-21T00:34:55;6.20;99.90
3942;DHT22;1985;48.592;8.850;2024-02-21T00:37:20;6.20;99.90
3942;DHT22;1985;48.592;8.850;2024-02-21T00:39:46;6.20;99.90
3942;DHT22;1985;48.592;8.850;2024-02-21T00:42:12;6.30;99.90
3942;DHT22;1985;48.592;8.850;2024-02-21T00:44:37;6.30;99.90
3942;DHT22;1985;48.592;8.850;2024-02-21T00:47:03;6.20;99.90
3942;DHT22;1985;48.592;8.850;2024-02-21T00:49:28;6.30;99.90
3942;DHT22;1985;48.592;8.850;2024-02-21T00:51:54;6.20;99.90
3942;DHT22;1985;48.592;8.850;2024-02-21T00:54:20;6.10;99.90
3942;DHT22;1985;48.592;8.850;2024-02-21T00:56:45;6.00;99.90
3942;DHT22;1985;48.592;8.850;2024-02-21T00:59:11;5.90;99.90
3942;DHT22;1985;48.592;8.850;2024-02-21T01:01:37;5.90;99.90
3942;DHT22;1985;48.592;8.850;2024-02-21T01:04:02;5.90;99.90
3942;DHT22;1985;48.592;8.850;2024-02-21T01:06:28;5.90;99.90
3942;DHT22;1985;48.592;8.850;2024-02-21T01:08:54;5.80;99.90
3942;DHT22;1985;48.592;8.850;2024-02-21T01:11:19;5.70;99.90
3942;DHT22;1985;48.592;8.850;2024-02-21T01:13:45;5.80;99.90
3942;DHT22;1985;48.592;8.850;2024-02-21T01:16:11;5.80;99.90
3942;DHT22;1985;48.592;8.850;2024-02-21T01:18:39;5.80;99.90
3942;DHT22;1985;48.592;8.850;2024-02-21T01:21:05;5.90;99.90
3942;DHT22;1985;48.592;8.850;2024-02-21T01:23:33;5.90;99.90
3942;DHT22;1985;48.592;8.850;2024-02-21T01:25:59;5.90;99.90
3942;DHT22;1985;48.592;8.850;2024-02-21T01:28:25;5.90;99.90
3942;DHT22;1985;48.592;8.850;2024-02-21T01:30:51;5.90;99.90
3942;DHT22;1985;48.592;8.850;2024-02-21T01:33:17;5.90;99.90
3942;DHT22;1985;48.592;8.850;2024-02-21T01:35:42;5.90;99.90
3942;DHT22;1985;48.592;8.850;2024-02-21T01:38:08;5.90;99.90
3942;DHT22;1985;48.592;8.850;2024-02-21T01:40:34;5.80;99.90
3942;DHT22;1985;48.592;8.850;2024-02-21T01:42:59;5.80;99.90
3942;DHT22;1985;48.592;8.850;2024-02-21T01:45:25;5.80;99.90
3942;DHT22;1985;48.592;8.850;2024-02-21T01:47:51;5.70;99.90
3942;DHT22;1985;48.592;8.850;2024-02-21T01:50:17;5.80;99.90
3942;DHT22;1985;48.592;8.850;2024-02-21T01:52:45;5.80;99.90
3942;DHT22;1985;48.592;8.850;2024-02-21T01:55:13;5.80;99.90
3942;DHT22;1985;48.592;8.850;2024-02-21T01:57:42;5.80;99.90
3942;DHT22;1985;48.592;8.850;2024-02-21T02:00:09;5.70;99.90
3942;DHT22;1985;48.592;8.850;2024-02-21T02:02:36;5.70;99.90
3942;DHT22;1985;48.592;8.850;2024-02-21T02:05:03;5.60;99.90
3942;DHT22;1985;48.592;8.850;2024-02-21T02:07:29;5.60;99.90
3942;DHT22;1985;48.592;8.850;2024-02-21T02:09:55;5.70;99.90
3942;DHT22;1985;48.592;8.850;2024-02-21T02:12:21;5.70;99.90
3942;DHT22;1985;48.592;8.850;2024-02-21T02:15:00;5.80;99.90
3942;DHT22;1985;48.592;8.850;2024-02-21T02:17:26;5.80;99.90
3942;DHT22;1985;48.592;8.850;2024-02-21T02:19:51;5.90;99.90
3942;DHT22;1985;48.592;8.850;2024-02-21T02:22:22;5.90;99.90
3942;DHT22;1985;48.592;8.850;2024-02-21T02:24:49;6.00;99.90
3942;DHT22;1985;48.592;8.850;2024-02-21T02:27:14;6.20;99.90
3942;DHT22;1985;48.592;8.850;2024-02-21T02:29:40;6.30;99.90
3942;DHT22;1985;48.592;8.850;2024-02-21T02:32:06;6.40;99.90
3942;DHT22;1985;48.592;8.850;2024-02-21T02:34:32;6.50;99.90
3942;DHT22;1985;48.592;8.850;2024-02-21T02:36:57;6.60;99.90
3942;DHT22;1985;48.592;8.850;2024-02-21T02:39:23;6.60;99.90
3942;DHT22;1985;48.592;8.850;2024-02-21T02:41:48;6.60;99.90
3942;DHT22;1985;48.592;8.850;2024-02-21T02:44:14;6.50;99.90
3942;DHT22;1985;48.592;8.850;2024-02-21T02:46:40;6.30;99.90
3942;DHT22;1985;48.592;8.850;2024-02-21T02:49:06;6.30;99.90
3942;DHT22;1985;48.592;8.850;2024-02-21T02:51:32;6.20;99.90
3942;DHT22;1985;48.592;8.850;2024-02-21T02:53:58;6.00;99.90
3942;DHT22;1985;48.592;8.850;2024-02-21T02:56:23;5.90;99.90
3942;DHT22;1985;48.592;8.850;2024-02-21T02:58:49;6.00;99.90
3942;DHT22;1985;48.592;8.850;2024-02-21T03:01:15;6.00;99.90
3942;DHT22;1985;48.592;8.850;2024-02-21T03:03:40;6.10;99.90
3942;DHT22;1985;48.592;8.850;2024-02-21T03:06:06;6.20;99.90
3942;DHT22;1985;48.592;8.850;2024-02-21T03:08:32;6.00;99.90
3942;DHT22;1985;48.592;8.850;2024-02-21T03:11:00;6.10;99.90
3942;DHT22;1985;48.592;8.850;2024-02-21T03:13:26;6.10;99.90
3942;DHT22;1985;48.592;8.850;2024-02-21T03:15:52;6.20;99.90
3942;DHT22;1985;48.592;8.850;2024-02-21T03:18:17;6.20;99.90
3942;DHT22;1985;48.592;8.850;2024-02-21T03:20:43;6.20;99.90
3942;DHT22;1985;48.592;8.850;2024-02-21T03:23:08;6.20;99.90
3942;DHT22;1985;48.592;8.850;2024-02-21T03:25:34;6.20;99.90
3942;DHT22;1985;48.592;8.850;2024-02-21T03:28:00;6.30;99.90
3942;DHT22;1985;48.592;8.850;2024-02-21T03:30:25;6.40;99.90
3942;DHT22;1985;48.592;8.850;2024-02-21T03:32:51;6.40;99.90
3942;DHT22;1985;48.592;8.850;2024-02-21T03:35:17;6.50;99.90
3942;DHT22;1985;48.592;8.850;2024-02-21T03:37:45;6.50;99.90
3942;DHT22;1985;48.592;8.850;2024-02-21T03:40:11;6.40;99.90
3942;DHT22;1985;48.592;8.850;2024-02-21T03:42:37;6.40;99.90
3942;DHT22;1985;48.592;8.850;2024-02-21T03:45:03;6.40;99.90
3942;DHT22;1985;48.592;8.850;2024-02-21T03:47:29;6.40;99.90
3942;DHT22;1985;48.592;8.850;2024-02-21T03:49:55;6.40;99.90
3942;DHT22;1985;48.592;8.850;2024-02-21T03:52:20;6.20;99.90
3942;DHT22;1985;48.592;8.850;2024-02-21T03:54:46;6.20;99.90
3942;DHT22;1985;48.592;8.850;2024-02-21T03:57:12;6.10;99.90
3942;DHT22;1985;48.592;8.850;2024-02-21T03:59:37;6.20;99.90
3942;DHT22;1985;48.592;8.850;2024-02-21T04:02:05;6.20;99.90
3942;DHT22;1985;48.592;8.850;2024-02-21T04:04:34;6.30;99.90
3942;DHT22;1985;48.592;8.850;2024-02-21T04:07:00;6.20;99.90
3942;DHT22;1985;48.592;8.850;2024-02-21T04:09:27;6.30;99.90
3942;DHT22;1985;48.592;8.850;2024-02-21T04:11:52;6.40;99.90
3942;DHT22;1985;48.592;8.850;2024-02-21T04:14:18;6.40;99.90
3942;DHT22;1985;48.592;8.850;2024-02-21T04:16:44;6.50;99.90
3942;DHT22;1985;48.592;8.850;2024-02-21T04:19:09;6.50;99.90
3942;DHT22;1985;48.592;8.850;2024-02-21T04:21:35;6.50;99.90
3942;DHT22;1985;48.592;8.850;2024-02-21T04:24:00;6.30;99.90
3942;DHT22;1985;48.592;8.850;2024-02-21T04:26:27;6.20;99.90
3942;DHT22;1985;48.592;8.850;2024-02-21T04:28:53;6.20;99.90
3942;DHT22;1985;48.592;8.850;2024-02-21T04:31:18;6.20;99.90
3942;DHT22;1985;48.592;8.850;2024-02-21T04:33:44;6.20;99.90
3942;DHT22;1985;48.592;8.850;2024-02-21T04:36:10;6.30;99.90
3942;DHT22;1985;48.592;8.850;2024-02-21T04:38:35;6.10;99.90
3942;DHT22;1985;48.592;8.850;2024-02-21T04:41:01;6.00;99.90
3942;DHT22;1985;48.592;8.850;2024-02-21T04:43:27;6.00;99.90
3942;DHT22;1985;48.592;8.850;2024-02-21T04:45:52;6.00;99.90
3942;DHT22;1985;48.592;8.850;2024-02-21T04:48:19;5.90;99.90
3942;DHT22;1985;48.592;8.850;2024-02-21T04:50:44;5.70;99.90
3942;DHT22;1985;48.592;8.850;2024-02-21T04:53:10;5.70;99.90
3942;DHT22;1985;48.592;8.850;2024-02-21T04:55:36;5.80;99.90
3942;DHT22;1985;48.592;8.850;2024-02-21T04:58:01;5.80;99.90
3942;DHT22;1985;48.592;8.850;2024-02-21T05:00:28;5.80;99.90
3942;DHT22;1985;48.592;8.850;2024-02-21T05:02:53;5.90;99.90
3942;DHT22;1985;48.592;8.850;2024-02-21T05:05:19;5.90;99.90
3942;DHT22;1985;48.592;8.850;2024-02-21T05:07:45;6.00;99.90
3942;DHT22;1985;48.592;8.850;2024-02-21T05:10:10;6.00;99.90
3942;DHT22;1985;48.592;8.850;2024-02-21T05:12:36;6.00;99.90
3942;DHT22;1985;48.592;8.850;2024-02-21T05:15:03;6.00;99.90
3942;DHT22;1985;48.592;8.850;2024-02-21T05:17:28;6.00;99.90
3942;DHT22;1985;48.592;8.850;2024-02-21T05:19:54;5.90;99.90
3942;DHT22;1985;48.592;8.850;2024-02-21T05:22:20;5.90;99.90
3942;DHT22;1985;48.592;8.850;2024-02-21T05:24:45;5.90;99.90
3942;DHT22;1985;48.592;8.850;2024-02-21T05:27:11;5.90;99.90
3942;DHT22;1985;48.592;8.850;2024-02-21T05:29:36;6.00;99.90
3942;DHT22;1985;48.592;8.850;2024-02-21T05:32:02;6.00;99.90
3942;DHT22;1985;48.592;8.850;2024-02-21T05:34:28;6.00;99.90
3942;DHT22;1985;48.592;8.850;2024-02-21T05:36:54;6.00;99.90
3942;DHT22;1985;48.592;8.850;2024-02-21T05:39:19;6.00;99.90
3942;DHT22;1985;48.592;8.850;2024-02-21T05:41:47;5.90;99.90
3942;DHT22;1985;48.592;8.850;2024-02-21T05:44:13;5.80;99.90
3942;DHT22;1985;48.592;8.850;2024-02-21T05:46:39;5.80;99.90
3942;DHT22;1985;48.592;8.850;2024-02-21T05:49:04;5.70;99.90
3942;DHT22;1985;48.592;8.850;2024-02-21T05:51:34;5.70;99.90
3942;DHT22;1985;48.592;8.850;2024-02-21T05:53:59;5.70;99.90
3942;DHT22;1985;48.592;8.850;2024-02-21T05:56:25;5.70;99.90
3942;DHT22;1985;48.592;8.850;2024-02-21T05:58:51;5.70;99.90
3942;DHT22;1985;48.592;8.850;2024-02-21T06:01:16;5.70;99.90
3942;DHT22;1985;48.592;8.850;2024-02-21T06:03:43;5.70;99.90
3942;DHT22;1985;48.592;8.850;2024-02-21T06:06:09;5.70;99.90
3942;DHT22;1985;48.592;8.850;2024-02-21T06:08:35;5.70;99.90
3942;DHT22;1985;48.592;8.850;2024-02-21T06:11:00;5.60;99.90
3942;DHT22;1985;48.592;8.850;2024-02-21T06:13:26;5.50;99.90
3942;DHT22;1985;48.592;8.850;2024-02-21T06:15:52;5.30;99.90
3942;DHT22;1985;48.592;8.850;2024-02-21T06:18:18;5.20;99.90
3942;DHT22;1985;48.592;8.850;2024-02-21T06:20:44;4.90;99.90
3942;DHT22;1985;48.592;8.850;2024-02-21T06:23:11;5.00;99.90
3942;DHT22;1985;48.592;8.850;2024-02-21T06:25:37;5.10;99.90
3942;DHT22;1985;48.592;8.850;2024-02-21T06:28:03;5.10;99.90
3942;DHT22;1985;48.592;8.850;2024-02-21T06:30:29;5.10;99.90
3942;DHT22;1985;48.592;8.850;2024-02-21T06:32:54;5.30;99.90
3942;DHT22;1985;48.592;8.850;2024-02-21T06:35:24;5.30;99.90
3942;DHT22;1985;48.592;8.850;2024-02-21T06:37:50;5.30;99.90
3942;DHT22;1985;48.592;8.850;2024-02-21T06:40:22;5.40;99.90
3942;DHT22;1985;48.592;8.850;2024-02-21T06:42:48;5.40;99.90
3942;DHT22;1985;48.592;8.850;2024-02-21T06:45:13;5.40;99.90
3942;DHT22;1985;48.592;8.850;2024-02-21T06:47:39;5.50;99.90
3942;DHT22;1985;48.592;8.850;2024-02-21T06:50:05;5.50;99.90
3942;DHT22;1985;48.592;8.850;2024-02-21T06:52:31;5.60;99.90
3942;DHT22;1985;48.592;8.850;2024-02-21T06:54:56;5.60;99.90
3942;DHT22;1985;48.592;8.850;2024-02-21T06:57:22;5.60;99.90
3942;DHT22;1985;48.592;8.850;2024-02-21T06:59:48;5.60;99.90
3942;DHT22;1985;48.592;8.850;2024-02-21T07:02:14;5.70;99.90
3942;DHT22;1985;48.592;8.850;2024-02-21T07:04:39;5.90;99.90
3942;DHT22;1985;48.592;8.850;2024-02-21T07:07:05;5.90;99.90
3942;DHT22;1985;48.592;8.850;2024-02-21T07:09:31;6.00;99.90
3942;DHT22;1985;48.592;8.850;2024-02-21T07:12:00;6.00;99.90
3942;DHT22;1985;48.592;8.850;2024-02-21T07:14:28;6.10;99.90
3942;DHT22;1985;48.592;8.850;2024-02-21T07:16:54;6.20;99.90
3942;DHT22;1985;48.592;8.850;2024-02-21T07:19:20;6.40;99.90
3942;DHT22;1985;48.592;8.850;2024-02-21T07:21:45;6.50;99.90
3942;DHT22;1985;48.592;8.850;2024-02-21T07:24:11;6.70;99.90
3942;DHT22;1985;48.592;8.850;2024-02-21T07:26:40;6.80;99.90
3942;DHT22;1985;48.592;8.850;2024-02-21T07:29:06;6.90;99.90
3942;DHT22;1985;48.592;8.850;2024-02-21T07:31:41;7.00;99.90
3942;DHT22;1985;48.592;8.850;2024-02-21T07:34:07;7.00;99.90
3942;DHT22;1985;48.592;8.850;2024-02-21T07:36:32;7.00;99.90
3942;DHT22;1985;48.592;8.850;2024-02-21T07:38:58;7.10;99.90
3942;DHT22;1985;48.592;8.850;2024-02-21T07:41:25;7.20;99.90
3942;DHT22;1985;48.592;8.850;2024-02-21T07:43:50;7.20;99.90
3942;DHT22;1985;48.592;8.850;2024-02-21T07:46:17;7.30;99.90
3942;DHT22;1985;48.592;8.850;2024-02-21T07:48:45;7.50;99.90
3942;DHT22;1985;48.592;8.850;2024-02-21T07:51:11;7.60;99.90
3942;DHT22;1985;48.592;8.850;2024-02-21T07:53:38;7.40;99.90
3942;DHT22;1985;48.592;8.850;2024-02-21T07:56:04;7.40;99.90
3942;DHT22;1985;48.592;8.850;2024-02-21T07:58:30;7.30;99.90
3942;DHT22;1985;48.592;8.850;2024-02-21T08:00:55;6.90;99.90
3942;DHT22;1985;48.592;8.850;2024-02-21T08:03:21;6.70;99.90
3942;DHT22;1985;48.592;8.850;2024-02-21T08:05:48;6.70;99.90
3942;DHT22;1985;48.592;8.850;2024-02-21T08:08:13;6.50;99.90
3942;DHT22;1985;48.592;8.850;2024-02-21T08:10:44;6.40;99.90
3942;DHT22;1985;48.592;8.850;2024-02-21T08:13:09;6.30;99.90
3942;DHT22;1985;48.592;8.850;2024-02-21T08:15:35;6.30;99.90
3942;DHT22;1985;48.592;8.850;2024-02-21T08:18:00;6.40;99.90
3942;DHT22;1985;48.592;8.850;2024-02-21T08:20:27;6.40;99.90
3942;DHT22;1985;48.592;8.850;2024-02-21T08:22:53;6.50;99.90
3942;DHT22;1985;48.592;8.850;2024-02-21T08:25:18;6.70;99.90
3942;DHT22;1985;48.592;8.850;2024-02-21T08:27:44;7.00;99.90
3942;DHT22;1985;48.592;8.850;2024-02-21T08:30:11;7.20;99.90
3942;DHT22;1985;48.592;8.850;2024-02-21T08:32:37;7.60;99.90
3942;DHT22;1985;48.592;8.850;2024-02-21T08:35:03;7.70;99.90
3942;DHT22;1985;48.592;8.850;2024-02-21T08:37:30;7.60;99.90
3942;DHT22;1985;48.592;8.850;2024-02-21T08:39:56;7.60;99.90
3942;DHT22;1985;48.592;8.850;2024-02-21T08:42:22;8.00;99.90
3942;DHT22;1985;48.592;8.850;2024-02-21T08:44:47;8.10;99.90
3942;DHT22;1985;48.592;8.850;2024-02-21T08:47:13;8.10;99.90
3942;DHT22;1985;48.592;8.850;2024-02-21T08:49:39;8.10;99.90
3942;DHT22;1985;48.592;8.850;2024-02-21T08:52:04;8.20;99.90
3942;DHT22;1985;48.592;8.850;2024-02-21T08:54:31;8.40;99.90
3942;DHT22;1985;48.592;8.850;2024-02-21T08:56:58;8.60;99.90
3942;DHT22;1985;48.592;8.850;2024-02-21T08:59:24;8.70;99.90
3942;DHT22;1985;48.592;8.850;2024-02-21T09:01:51;8.60;99.90
3942;DHT22;1985;48.592;8.850;2024-02-21T09:04:17;8.60;99.90
3942;DHT22;1985;48.592;8.850;2024-02-21T09:06:43;8.70;99.90
3942;DHT22;1985;48.592;8.850;2024-02-21T09:09:10;8.70;99.90
3942;DHT22;1985;48.592;8.850;2024-02-21T09:11:36;8.80;99.90
3942;DHT22;1985;48.592;8.850;2024-02-21T09:14:01;8.60;99.90
3942;DHT22;1985;48.592;8.850;2024-02-21T09:16:32;8.80;99.90
3942;DHT22;1985;48.592;8.850;2024-02-21T09:18:58;8.90;99.90
3942;DHT22;1985;48.592;8.850;2024-02-21T09:21:24;9.10;99.90
3942;DHT22;1985;48.592;8.850;2024-02-21T09:23:50;9.20;99.90
3942;DHT22;1985;48.592;8.850;2024-02-21T09:26:15;9.10;99.90
3942;DHT22;1985;48.592;8.850;2024-02-21T09:28:43;9.30;99.90
3942;DHT22;1985;48.592;8.850;2024-02-21T09:31:09;9.50;99.90
3942;DHT22;1985;48.592;8.850;2024-02-21T09:33:34;9.40;99.90
3942;DHT22;1985;48.592;8.850;2024-02-21T09:36:01;9.50;99.90
3942;DHT22;1985;48.592;8.850;2024-02-21T09:38:27;9.40;99.90
3942;DHT22;1985;48.592;8.850;2024-02-21T09:41:00;9.30;99.90
3942;DHT22;1985;48.592;8.850;2024-02-21T09:43:29;9.40;99.90
3942;DHT22;1985;48.592;8.850;2024-02-21T09:45:55;9.80;99.90
3942;DHT22;1985;48.592;8.850;2024-02-21T09:50:56;10.20;99.90
3942;DHT22;1985;48.592;8.850;2024-02-21T09:53:24;10.20;99.90
3942;DHT22;1985;48.592;8.850;2024-02-21T09:55:50;9.90;99.90
3942;DHT22;1985;48.592;8.850;2024-02-21T09:58:17;9.90;99.90
3942;DHT22;1985;48.592;8.850;2024-02-21T10:00:43;10.20;99.90
3942;DHT22;1985;48.592;8.850;2024-02-21T10:03:09;9.80;99.90
3942;DHT22;1985;48.592;8.850;2024-02-21T10:05:36;10.00;99.90
3942;DHT22;1985;48.592;8.850;2024-02-21T10:08:03;10.20;99.90
3942;DHT22;1985;48.592;8.850;2024-02-21T10:10:28;10.50;99.90
3942;DHT22;1985;48.592;8.850;2024-02-21T10:12:56;10.40;99.90
3942;DHT22;1985;48.592;8.850;2024-02-21T10:15:24;10.20;99.90
3942;DHT22;1985;48.592;8.850;2024-02-21T10:18:00;10.30;99.90
3942;DHT22;1985;48.592;8.850;2024-02-21T10:20:26;10.40;99.90
3942;DHT22;1985;48.592;8.850;2024-02-21T10:23:02;10.40;99.90
3942;DHT22;1985;48.592;8.850;2024-02-21T10:25:37;10.50;99.90
3942;DHT22;1985;48.592;8.850;2024-02-21T10:28:13;10.60;99.90
3942;DHT22;1985;48.592;8.850;2024-02-21T10:30:52;10.70;99.90
3942;DHT22;1985;48.592;8.850;2024-02-21T10:33:18;10.90;99.90
3942;DHT22;1985;48.592;8.850;2024-02-21T10:35:47;11.10;99.90
3942;DHT22;1985;48.592;8.850;2024-02-21T10:38:15;11.50;99.90
3942;DHT22;1985;48.592;8.850;2024-02-21T10:40:40;12.20;99.70
3942;DHT22;1985;48.592;8.850;2024-02-21T10:43:11;12.80;98.10
3942;DHT22;1985;48.592;8.850;2024-02-21T10:45:37;13.30;97.50
3942;DHT22;1985;48.592;8.850;2024-02-21T10:48:17;13.90;95.00
3942;DHT22;1985;48.592;8.850;2024-02-21T10:51:01;14.00;93.50
3942;DHT22;1985;48.592;8.850;2024-02-21T10:53:41;13.40;93.40
3942;DHT22;1985;48.592;8.850;2024-02-21T10:56:22;13.40;93.50
3942;DHT22;1985;48.592;8.850;2024-02-21T10:58:50;13.20;93.50
3942;DHT22;1985;48.592;8.850;2024-02-21T11:01:18;13.20;93.10
3942;DHT22;1985;48.592;8.850;2024-02-21T11:03:45;13.00;93.20
3942;DHT22;1985;48.592;8.850;2024-02-21T11:06:13;13.20;93.40
3942;DHT22;1985;48.592;8.850;2024-02-21T11:08:39;13.70;93.20
3942;DHT22;1985;48.592;8.850;2024-02-21T11:11:05;13.70;92.10
3942;DHT22;1985;48.592;8.850;2024-02-21T11:16:11;14.00;91.70
3942;DHT22;1985;48.592;8.850;2024-02-21T11:18:37;14.20;90.20
3942;DHT22;1985;48.592;8.850;2024-02-21T11:21:04;14.30;88.10
3942;DHT22;1985;48.592;8.850;2024-02-21T11:23:32;14.30;88.80
3942;DHT22;1985;48.592;8.850;2024-02-21T11:26:08;13.70;87.20
3942;DHT22;1985;48.592;8.850;2024-02-21T11:28:34;13.10;86.40
3942;DHT22;1985;48.592;8.850;2024-02-21T11:33:34;12.50;89.30
3942;DHT22;1985;48.592;8.850;2024-02-21T11:36:01;12.30;89.80
3942;DHT22;1985;48.592;8.850;2024-02-21T11:38:26;12.70;89.70
3942;DHT22;1985;48.592;8.850;2024-02-21T11:40:52;13.10;90.00
3942;DHT22;1985;48.592;8.850;2024-02-21T11:43:18;13.40;89.70
3942;DHT22;1985;48.592;8.850;2024-02-21T11:45:43;13.70;89.20
3942;DHT22;1985;48.592;8.850;2024-02-21T11:48:09;13.70;89.20
3942;DHT22;1985;48.592;8.850;2024-02-21T11:50:35;14.00;88.40
3942;DHT22;1985;48.592;8.850;2024-02-21T11:53:05;14.50;87.40
3942;DHT22;1985;48.592;8.850;2024-02-21T11:55:31;14.60;85.50
3942;DHT22;1985;48.592;8.850;2024-02-21T11:57:57;15.00;84.00
3942;DHT22;1985;48.592;8.850;2024-02-21T12:00:23;15.40;84.60
3942;DHT22;1985;48.592;8.850;2024-02-21T12:02:51;15.70;81.80
3942;DHT22;1985;48.592;8.850;2024-02-21T12:05:19;15.50;81.60
3942;DHT22;1985;48.592;8.850;2024-02-21T12:07:45;15.60;80.60
3942;DHT22;1985;48.592;8.850;2024-02-21T12:10:12;15.50;79.10
3942;DHT22;1985;48.592;8.850;2024-02-21T12:12:38;15.10;79.90
3942;DHT22;1985;48.592;8.850;2024-02-21T12:15:05;15.00;79.70
3942;DHT22;1985;48.592;8.850;2024-02-21T12:17:36;14.80;77.00
3942;DHT22;1985;48.592;8.850;2024-02-21T12:20:06;14.60;74.70
3942;DHT22;1985;48.592;8.850;2024-02-21T12:22:35;14.70;77.30
3942;DHT22;1985;48.592;8.850;2024-02-21T12:25:16;14.50;73.20
3942;DHT22;1985;48.592;8.850;2024-02-21T12:27:43;14.10;68.00
3942;DHT22;1985;48.592;8.850;2024-02-21T12:30:09;13.90;70.00
3942;DHT22;1985;48.592;8.850;2024-02-21T12:32:36;13.60;71.30
3942;DHT22;1985;48.592;8.850;2024-02-21T12:35:01;13.70;72.00
3942;DHT22;1985;48.592;8.850;2024-02-21T12:37:27;14.00;75.70
3942;DHT22;1985;48.592;8.850;2024-02-21T12:39:53;13.80;77.00
3942;DHT22;1985;48.592;8.850;2024-02-21T12:42:19;13.70;77.10
3942;DHT22;1985;48.592;8.850;2024-02-21T12:44:45;13.90;77.30
3942;DHT22;1985;48.592;8.850;2024-02-21T12:47:11;13.90;72.70
3942;DHT22;1985;48.592;8.850;2024-02-21T12:49:37;14.10;75.90
3942;DHT22;1985;48.592;8.850;2024-02-21T12:52:03;14.30;70.00
3942;DHT22;1985;48.592;8.850;2024-02-21T12:54:29;14.10;67.30
3942;DHT22;1985;48.592;8.850;2024-02-21T12:56:56;14.10;69.80
3942;DHT22;1985;48.592;8.850;2024-02-21T12:59:22;14.10;68.90
3942;DHT22;1985;48.592;8.850;2024-02-21T13:01:48;14.10;69.40
3942;DHT22;1985;48.592;8.850;2024-02-21T13:04:14;13.80;67.10
3942;DHT22;1985;48.592;8.850;2024-02-21T13:06:39;13.70;67.30
3942;DHT22;1985;48.592;8.850;2024-02-21T13:09:05;13.80;69.10
3942;DHT22;1985;48.592;8.850;2024-02-21T13:11:34;13.90;68.20
3942;DHT22;1985;48.592;8.850;2024-02-21T13:14:00;14.00;69.50
3942;DHT22;1985;48.592;8.850;2024-02-21T13:16:26;14.00;65.70
3942;DHT22;1985;48.592;8.850;2024-02-21T13:18:52;14.00;65.20
3942;DHT22;1985;48.592;8.850;2024-02-21T13:21:18;13.80;63.90
3942;DHT22;1985;48.592;8.850;2024-02-21T13:23:44;13.60;65.50
3942;DHT22;1985;48.592;8.850;2024-02-21T13:26:10;13.10;65.60
3942;DHT22;1985;48.592;8.850;2024-02-21T13:28:36;13.00;65.30
3942;DHT22;1985;48.592;8.850;2024-02-21T13:31:02;12.80;67.00
3942;DHT22;1985;48.592;8.850;2024-02-21T13:33:28;12.60;65.60
3942;DHT22;1985;48.592;8.850;2024-02-21T13:35:54;12.60;65.20
3942;DHT22;1985;48.592;8.850;2024-02-21T13:38:20;12.50;67.80
3942;DHT22;1985;48.592;8.850;2024-02-21T13:40:45;12.70;70.00
3942;DHT22;1985;48.592;8.850;2024-02-21T13:43:11;12.70;67.90
3942;DHT22;1985;48.592;8.850;2024-02-21T13:45:38;12.90;69.50
3942;DHT22;1985;48.592;8.850;2024-02-21T13:48:04;13.00;70.70
3942;DHT22;1985;48.592;8.850;2024-02-21T13:50:31;13.00;71.40
3942;DHT22;1985;48.592;8.850;2024-02-21T13:52:57;13.10;70.80
3942;DHT22;1985;48.592;8.850;2024-02-21T13:55:23;13.20;71.90
3942;DHT22;1985;48.592;8.850;2024-02-21T13:57:51;13.10;71.40
3942;DHT22;1985;48.592;8.850;2024-02-21T14:00:17;13.10;72.10
3942;DHT22;1985;48.592;8.850;2024-02-21T14:02:44;13.10;72.40
3942;DHT22;1985;48.592;8.850;2024-02-21T14:05:10;12.80;73.80
3942;DHT22;1985;48.592;8.850;2024-02-21T14:07:36;12.80;76.60
3942;DHT22;1985;48.592;8.850;2024-02-21T14:10:02;12.80;77.20
3942;DHT22;1985;48.592;8.850;2024-02-21T14:12:29;12.90;77.50
3942;DHT22;1985;48.592;8.850;2024-02-21T14:14:55;12.90;78.00
3942;DHT22;1985;48.592;8.850;2024-02-21T14:17:23;13.00;77.80
3942;DHT22;1985;48.592;8.850;2024-02-21T14:19:50;12.80;77.40
3942;DHT22;1985;48.592;8.850;2024-02-21T14:22:17;12.90;78.10
3942;DHT22;1985;48.592;8.850;2024-02-21T14:24:42;12.90;78.50
3942;DHT22;1985;48.592;8.850;2024-02-21T14:27:08;13.00;80.10
3942;DHT22;1985;48.592;8.850;2024-02-21T14:29:34;13.20;80.50
3942;DHT22;1985;48.592;8.850;2024-02-21T14:32:00;13.40;79.00
3942;DHT22;1985;48.592;8.850;2024-02-21T14:34:26;13.30;80.20
3942;DHT22;1985;48.592;8.850;2024-02-21T14:36:52;13.30;79.30
3942;DHT22;1985;48.592;8.850;2024-02-21T14:39:17;13.30;80.80
3942;DHT22;1985;48.592;8.850;2024-02-21T14:41:43;13.10;81.00
3942;DHT22;1985;48.592;8.850;2024-02-21T14:44:09;13.10;81.30
3942;DHT22;1985;48.592;8.850;2024-02-21T14:46:36;13.20;82.00
3942;DHT22;1985;48.592;8.850;2024-02-21T14:49:03;13.20;82.70
3942;DHT22;1985;48.592;8.850;2024-02-21T14:51:28;13.10;83.60
3942;DHT22;1985;48.592;8.850;2024-02-21T14:53:54;13.20;83.50
3942;DHT22;1985;48.592;8.850;2024-02-21T14:56:20;13.10;83.90
3942;DHT22;1985;48.592;8.850;2024-02-21T14:58:46;13.10;83.10
3942;DHT22;1985;48.592;8.850;2024-02-21T15:01:12;13.00;83.00
3942;DHT22;1985;48.592;8.850;2024-02-21T15:03:38;12.80;84.00
3942;DHT22;1985;48.592;8.850;2024-02-21T15:06:04;12.70;83.30
3942;DHT22;1985;48.592;8.850;2024-02-21T15:08:30;12.70;84.90
3942;DHT22;1985;48.592;8.850;2024-02-21T15:10:56;12.70;84.40
3942;DHT22;1985;48.592;8.850;2024-02-21T15:13:21;12.60;86.00
3942;DHT22;1985;48.592;8.850;2024-02-21T15:15:48;12.60;86.60
3942;DHT22;1985;48.592;8.850;2024-02-21T15:18:17;12.50;88.20
3942;DHT22;1985;48.592;8.850;2024-02-21T15:20:43;12.40;89.10
3942;DHT22;1985;48.592;8.850;2024-02-21T15:23:09;12.30;90.00
3942;DHT22;1985;48.592;8.850;2024-02-21T15:25:35;12.30;90.50
3942;DHT22;1985;48.592;8.850;2024-02-21T15:28:00;12.30;91.00
3942;DHT22;1985;48.592;8.850;2024-02-21T15:30:28;12.40;91.20
3942;DHT22;1985;48.592;8.850;2024-02-21T15:32:57;12.40;91.50
3942;DHT22;1985;48.592;8.850;2024-02-21T15:35:27;12.30;92.20
3942;DHT22;1985;48.592;8.850;2024-02-21T15:37:53;12.10;92.70
3942;DHT22;1985;48.592;8.850;2024-02-21T15:40:24;12.00;92.90
3942;DHT22;1985;48.592;8.850;2024-02-21T15:42:50;11.90;93.40
3942;DHT22;1985;48.592;8.850;2024-02-21T15:45:16;11.90;93.70
3942;DHT22;1985;48.592;8.850;2024-02-21T15:47:41;12.00;94.30
3942;DHT22;1985;48.592;8.850;2024-02-21T15:50:08;12.00;94.40
3942;DHT22;1985;48.592;8.850;2024-02-21T15:52:36;12.10;94.30
3942;DHT22;1985;48.592;8.850;2024-02-21T15:55:03;12.10;93.70
3942;DHT22;1985;48.592;8.850;2024-02-21T15:57:29;12.00;93.90
3942;DHT22;1985;48.592;8.850;2024-02-21T15:59:57;12.10;94.10
3942;DHT22;1985;48.592;8.850;2024-02-21T16:02:23;11.90;94.10
3942;DHT22;1985;48.592;8.850;2024-02-21T16:04:50;11.80;94.50
3942;DHT22;1985;48.592;8.850;2024-02-21T16:07:15;11.70;95.10
3942;DHT22;1985;48.592;8.850;2024-02-21T16:09:41;11.80;95.40
3942;DHT22;1985;48.592;8.850;2024-02-21T16:12:10;11.80;94.90
3942;DHT22;1985;48.592;8.850;2024-02-21T16:14:35;11.80;95.10